Time,TemperatureF,DewpointF,PressureIn,WindDirection,WindDirectionDegrees,WindSpeedMPH,WindSpeedGustMPH,Humidity,HourlyPrecipIn,Conditions,Clouds,dailyrainin,SoftwareType,DateUTC
2013-05-30 00:03:00,67.1,28.0,30.09,East,90,0.0,0.0,23,0.00,CLR,CLR,0.00,WeatherDisplay:10.37,2013-05-30 04:03:00,
2013-05-30 00:18:00,66.9,27.9,30.09,East,90,0.0,0.0,23,0.00,CLR,CLR,0.00,WeatherDisplay:10.37,2013-05-30 04:18:00,
2013-05-30 00:33:00,66.9,27.9,30.09,ESE,108,0.0,0.0,23,0.00,CLR,CLR,0.00,WeatherDisplay:10.37,2013-05-30 04:33:00,
2013-05-30 00:48:00,66.9,27.9,30.09,NE,54,0.0,0.0,23,0.00,CLR,CLR,0.00,WeatherDisplay:10.37,2013-05-30 04:48:00,
2013-05-30 01:03:00,66.7,27.7,30.09,ENE,76,0.0,0.0,23,0.00,CLR,CLR,0.00,WeatherDisplay:10.37,2013-05-30 05:03:00,
2013-05-30 01:18:00,66.7,28.8,30.12,East,90,0.0,0.0,24,0.00,CLR,CLR,0.00,WeatherDisplay:10.37,2013-05-30 05:18:00,
2013-05-30 01:33:00,66.4,28.5,30.12,East,90,0.0,0.0,24,0.00,CLR,CLR,0.00,WeatherDisplay:10.37,2013-05-30 05:33:00,
2013-05-30 01:48:00,66.4,28.5,30.12,South,169,0.0,0.0,24,0.00,CLR,CLR,0.00,WeatherDisplay:10.37,2013-05-30 05:48:00,
2013-05-30 02:03:00,66.6,28.6,30.12,SE,139,0.0,0.0,24,0.00,CLR,CLR,0.00,WeatherDisplay:10.37,2013-05-30 06:03:00,
2013-05-30 02:18:00,66.7,28.8,30.09,South,180,0.0,0.0,24,0.00,CLR,CLR,0.00,WeatherDisplay:10.37,2013-05-30 06:18:00,
2013-05-30 02:33:00,67.5,30.4,30.09,South,180,1.0,1.0,25,0.00,CLR,CLR,0.00,WeatherDisplay:10.37,2013-05-30 06:33:00,
2013-05-30 02:48:00,68.2,30.0,30.12,SSW,200,2.0,3.0,24,0.00,CLR,CLR,0.00,WeatherDisplay:10.37,2013-05-30 06:48:00,
2013-05-30 03:03:00,69.1,29.7,30.12,South,180,2.0,4.0,23,0.00,CLR,CLR,0.00,WeatherDisplay:10.37,2013-05-30 07:03:00,
2013-05-30 03:04:00,69.8,62.6,30.12,South,189,3.0,5.0,78,0.00,SCT,SCT,0.00,WeatherDisplay:10.37,2013-05-30 07:04:00,
2013-05-30 03:05:00,69.8,62.6,30.12,South,189,3.0,0.0,78,0.00,SCT,SCT,0.00,WeatherDisplay:10.37,2013-05-30 07:05:00,
2013-05-30 03:06:00,69.8,62.6,30.12,South,189,3.0,0.0,78,0.00,SCT,SCT,0.00,WeatherDisplay:10.37,2013-05-30 07:06:00,
2013-05-30 03:07:00,69.8,62.6,30.12,South,189,3.0,0.0,78,0.00,SCT,SCT,0.00,WeatherDisplay:10.37,2013-05-30 07:07:00,
2013-05-30 03:08:00,69.8,62.6,30.12,South,189,3.0,0.0,78,0.00,SCT,SCT,0.00,WeatherDisplay:10.37,2013-05-30 07:08:00,
2013-05-30 03:09:00,69.8,62.6,30.12,South,189,3.0,0.0,78,0.00,SCT,SCT,0.00,WeatherDisplay:10.37,2013-05-30 07:09:00,
2013-05-30 03:10:00,69.8,62.6,30.12,South,189,3.0,0.0,78,0.00,SCT,SCT,0.00,WeatherDisplay:10.37,2013-05-30 07:10:00,
2013-05-30 03:11:00,69.8,62.6,30.12,South,189,3.0,0.0,78,0.00,SCT,SCT,0.00,WeatherDisplay:10.37,2013-05-30 07:11:00,
2013-05-30 03:12:00,69.8,62.6,30.12,South,189,3.0,0.0,78,0.00,SCT,SCT,0.00,WeatherDisplay:10.37,2013-05-30 07:12:00,
2013-05-30 03:13:00,69.8,62.6,30.12,South,189,3.0,0.0,78,0.00,SCT,SCT,0.00,WeatherDisplay:10.37,2013-05-30 07:13:00,
2013-05-30 03:14:00,69.8,62.6,30.12,South,189,3.0,0.0,78,0.00,SCT,SCT,0.00,WeatherDisplay:10.37,2013-05-30 07:14:00,
2013-05-30 03:15:00,69.8,62.6,30.12,South,189,3.0,0.0,78,0.00,SCT,SCT,0.00,WeatherDisplay:10.37,2013-05-30 07:15:00,
2013-05-30 03:16:00,69.8,62.6,30.12,South,189,3.0,0.0,78,0.00,SCT,SCT,0.00,WeatherDisplay:10.37,2013-05-30 07:16:00,
2013-05-30 03:17:00,69.8,62.6,30.12,South,189,3.0,0.0,78,0.00,SCT,SCT,0.00,WeatherDisplay:10.37,2013-05-30 07:17:00,
2013-05-30 03:18:00,69.8,62.6,30.12,South,189,3.0,0.0,78,0.00,SCT,SCT,0.00,WeatherDisplay:10.37,2013-05-30 07:18:00,
2013-05-30 08:17:00,69.8,62.6,30.12,SW,225,4.2,4.2,78,0.00,CLR,,0.00,WeatherDisplay:10.37,2013-05-30 12:17:00,
2013-05-30 08:18:00,69.8,62.6,30.12,SSW,202,3.5,3.5,78,0.00,SCT,,0.00,WeatherDisplay:10.37,2013-05-30 12:18:00,
2013-05-30 08:23:00,70.3,62.8,30.12,SE,135,3.8,3.8,77,0.00,SCT,,0.00,WeatherDisplay:10.37,2013-05-30 12:23:00,
2013-05-30 08:28:00,70.7,63.1,30.12,South,180,5.8,5.8,77,0.00,SCT,,0.00,WeatherDisplay:10.37,2013-05-30 12:28:00,
2013-05-30 08:33:00,70.9,63.3,30.12,South,180,5.8,5.8,77,0.00,CLR,,0.00,WeatherDisplay:10.37,2013-05-30 12:33:00,
2013-05-30 08:38:00,71.1,63.5,30.12,South,180,3.5,3.5,77,0.00,CLR,,0.00,WeatherDisplay:10.37,2013-05-30 12:38:00,
2013-05-30 08:43:00,71.4,62.7,30.12,SW,225,5.8,5.8,74,0.00,CLR,,0.00,WeatherDisplay:10.37,2013-05-30 12:43:00,
2013-05-30 08:48:00,71.6,62.9,30.12,South,189,3.0,0.0,74,0.00,CLR,CLR,0.00,WeatherDisplay:10.37,2013-05-30 12:48:00,
2013-05-30 08:53:00,72.0,63.2,30.12,South,180,6.9,6.9,74,0.00,CLR,,0.00,WeatherDisplay:10.37,2013-05-30 12:53:00,
2013-05-30 08:58:00,72.5,63.7,30.12,South,180,3.6,3.6,74,0.00,CLR,,0.00,WeatherDisplay:10.37,2013-05-30 12:58:00,
2013-05-30 09:03:00,72.9,64.1,30.12,SW,225,5.8,5.8,74,0.00,CLR,,0.00,WeatherDisplay:10.37,2013-05-30 13:03:00,
2013-05-30 09:08:00,73.0,63.1,30.12,SSW,202,6.9,6.9,71,0.00,CLR,,0.00,WeatherDisplay:10.37,2013-05-30 13:08:00,
2013-05-30 09:13:00,73.4,63.4,30.12,South,180,6.9,6.9,71,0.00,CLR,,0.00,WeatherDisplay:10.37,2013-05-30 13:13:00,
2013-05-30 09:18:00,73.6,63.6,30.15,SSW,202,5.8,5.8,71,0.00,CLR,,0.00,WeatherDisplay:10.37,2013-05-30 13:18:00,
2013-05-30 09:23:00,74.3,64.3,30.15,SE,135,5.8,5.8,71,0.00,CLR,,0.00,WeatherDisplay:10.37,2013-05-30 13:23:00,
2013-05-30 09:28:00,74.5,64.5,30.15,SW,225,5.8,5.8,71,0.00,CLR,,0.00,WeatherDisplay:10.37,2013-05-30 13:28:00,
2013-05-30 09:33:00,75.0,65.0,30.12,SSW,202,5.8,5.8,71,0.00,CLR,,0.00,WeatherDisplay:10.37,2013-05-30 13:33:00,
2013-05-30 09:38:00,75.4,64.9,30.12,SW,225,6.9,6.9,70,0.00,CLR,,0.00,WeatherDisplay:10.37,2013-05-30 13:38:00,
2013-05-30 09:43:00,76.1,65.6,30.12,SSW,202,4.6,4.6,70,0.00,CLR,,0.00,WeatherDisplay:10.37,2013-05-30 13:43:00,
2013-05-30 09:48:00,76.3,65.8,30.15,SSW,196,7.0,0.0,70,0.00,CLR,CLR,0.00,WeatherDisplay:10.37,2013-05-30 13:48:00,
2013-05-30 09:53:00,76.6,66.1,30.15,South,180,8.1,8.1,70,0.00,CLR,,0.00,WeatherDisplay:10.37,2013-05-30 13:53:00,
2013-05-30 09:58:00,77.0,66.5,30.15,South,180,8.1,8.1,70,0.00,CLR,,0.00,WeatherDisplay:10.37,2013-05-30 13:58:00,
2013-05-30 10:03:00,77.7,67.2,30.12,South,180,8.1,8.1,70,0.00,SCT,,0.00,WeatherDisplay:10.37,2013-05-30 14:03:00,
2013-05-30 10:08:00,77.7,67.2,30.12,SSW,202,9.0,9.0,70,0.00,SCT,,0.00,WeatherDisplay:10.37,2013-05-30 14:08:00,
2013-05-30 10:13:00,78.4,67.8,30.12,South,180,8.1,8.1,70,0.00,SCT,,0.00,WeatherDisplay:10.37,2013-05-30 14:13:00,
2013-05-30 10:18:00,79.0,68.4,30.12,South,180,5.8,5.8,70,0.00,SCT,,0.00,WeatherDisplay:10.37,2013-05-30 14:18:00,
2013-05-30 10:23:00,80.1,69.4,30.12,South,180,5.8,5.8,70,0.00,SCT,,0.00,WeatherDisplay:10.37,2013-05-30 14:23:00,
2013-05-30 10:28:00,80.4,69.7,30.12,SSW,202,5.4,5.4,70,0.00,SCT,,0.00,WeatherDisplay:10.37,2013-05-30 14:28:00,
2013-05-30 10:33:00,81.0,69.8,30.12,SE,135,5.8,5.8,69,0.00,SCT,,0.00,WeatherDisplay:10.37,2013-05-30 14:33:00,
2013-05-30 10:38:00,81.3,70.2,30.12,South,180,5.8,5.8,69,0.00,SCT,,0.00,WeatherDisplay:10.37,2013-05-30 14:38:00,
2013-05-30 10:43:00,81.7,70.5,30.12,SE,135,5.8,5.8,69,0.00,SCT,,0.00,WeatherDisplay:10.37,2013-05-30 14:43:00,
2013-05-30 10:48:00,81.7,70.5,30.12,South,180,6.9,6.9,69,0.00,SCT,,0.00,WeatherDisplay:10.37,2013-05-30 14:48:00,
2013-05-30 10:53:00,82.4,71.2,30.12,WSW,248,6.9,6.9,69,0.00,SCT,,0.00,WeatherDisplay:10.37,2013-05-30 14:53:00,
2013-05-30 10:58:00,82.8,71.5,30.12,SW,225,8.1,8.1,69,0.00,SCT,,0.00,WeatherDisplay:10.37,2013-05-30 14:58:00,
2013-05-30 11:03:00,82.9,71.7,30.12,SW,225,8.1,8.1,69,0.00,CLR,,0.00,WeatherDisplay:10.37,2013-05-30 15:03:00,
2013-05-30 11:08:00,83.5,72.2,30.12,South,180,8.1,8.1,69,0.00,CLR,,0.00,WeatherDisplay:10.37,2013-05-30 15:08:00,
2013-05-30 11:13:00,83.7,72.4,30.12,South,180,11.5,11.5,69,0.00,CLR,,0.00,WeatherDisplay:10.37,2013-05-30 15:13:00,
2013-05-30 11:18:00,83.7,72.4,30.12,SSW,202,6.9,6.9,69,0.00,CLR,,0.00,WeatherDisplay:10.37,2013-05-30 15:18:00,
2013-05-30 11:23:00,83.5,72.2,30.12,WSW,248,9.2,9.2,69,0.00,CLR,,0.00,WeatherDisplay:10.37,2013-05-30 15:23:00,
2013-05-30 11:28:00,84.6,72.8,30.12,South,180,6.0,6.0,68,0.00,CLR,,0.00,WeatherDisplay:10.37,2013-05-30 15:28:00,
2013-05-30 11:33:00,84.9,73.2,30.12,South,180,9.2,9.2,68,0.00,CLR,,0.00,WeatherDisplay:10.37,2013-05-30 15:33:00,
2013-05-30 11:38:00,84.9,73.2,30.12,South,180,10.4,10.4,68,0.00,CLR,,0.00,WeatherDisplay:10.37,2013-05-30 15:38:00,
2013-05-30 11:43:00,85.1,73.3,30.12,South,180,6.9,6.9,68,0.00,CLR,,0.00,WeatherDisplay:10.37,2013-05-30 15:43:00,
2013-05-30 11:48:00,85.6,73.9,30.12,NW,315,8.1,8.1,68,0.00,CLR,,0.00,WeatherDisplay:10.37,2013-05-30 15:48:00,
2013-05-30 11:53:00,85.3,73.5,30.12,South,180,13.8,13.8,68,0.00,CLR,,0.00,WeatherDisplay:10.37,2013-05-30 15:53:00,
2013-05-30 11:58:00,85.1,73.3,30.12,SW,225,9.2,9.2,68,0.00,CLR,,0.00,WeatherDisplay:10.37,2013-05-30 15:58:00,
2013-05-30 12:03:00,85.6,73.9,30.12,SSW,202,9.2,9.2,68,0.00,FEW,,0.00,WeatherDisplay:10.37,2013-05-30 16:03:00,
2013-05-30 12:08:00,85.1,73.3,30.12,SW,225,11.5,11.5,68,0.00,FEW,,0.00,WeatherDisplay:10.37,2013-05-30 16:08:00,
2013-05-30 12:13:00,85.5,73.7,30.12,South,180,10.4,10.4,68,0.00,FEW,,0.00,WeatherDisplay:10.37,2013-05-30 16:13:00,
2013-05-30 12:18:00,86.4,74.5,30.12,South,180,6.0,6.0,68,0.00,FEW,,0.00,WeatherDisplay:10.37,2013-05-30 16:18:00,
2013-05-30 12:23:00,86.9,75.1,30.12,South,180,7.4,7.4,68,0.00,FEW,,0.00,WeatherDisplay:10.37,2013-05-30 16:23:00,
2013-05-30 12:28:00,86.0,74.2,30.12,SW,225,12.7,12.7,68,0.00,FEW,,0.00,WeatherDisplay:10.37,2013-05-30 16:28:00,
2013-05-30 12:33:00,85.1,73.3,30.12,South,180,10.4,10.4,68,0.00,FEW,,0.00,WeatherDisplay:10.37,2013-05-30 16:33:00,
2013-05-30 12:38:00,85.5,73.7,30.12,South,180,9.2,9.2,68,0.00,FEW,,0.00,WeatherDisplay:10.37,2013-05-30 16:38:00,
2013-05-30 12:43:00,86.0,74.2,30.12,SW,225,9.2,9.2,68,0.00,FEW,,0.00,WeatherDisplay:10.37,2013-05-30 16:43:00,
2013-05-30 12:48:00,85.5,73.7,30.12,South,180,10.4,10.4,68,0.00,FEW,,0.00,WeatherDisplay:10.37,2013-05-30 16:48:00,
2013-05-30 12:53:00,87.1,75.2,30.12,South,180,9.8,9.8,68,0.00,FEW,,0.00,WeatherDisplay:10.37,2013-05-30 16:53:00,
2013-05-30 12:58:00,87.6,75.7,30.12,South,180,11.8,11.8,68,0.00,FEW,,0.00,WeatherDisplay:10.37,2013-05-30 16:58:00,
2013-05-30 13:03:00,87.8,75.9,30.12,South,180,10.4,10.4,68,0.00,FEW,,0.00,WeatherDisplay:10.37,2013-05-30 17:03:00,
2013-05-30 13:08:00,88.2,76.3,30.12,South,180,8.1,8.1,68,0.00,FEW,,0.00,WeatherDisplay:10.37,2013-05-30 17:08:00,
2013-05-30 13:13:00,89.2,77.3,30.12,South,180,11.5,11.5,68,0.00,FEW,,0.00,WeatherDisplay:10.37,2013-05-30 17:13:00,
2013-05-30 13:18:00,88.0,76.1,30.12,SW,225,13.8,13.8,68,0.00,FEW,,0.00,WeatherDisplay:10.37,2013-05-30 17:18:00,
2013-05-30 13:23:00,88.7,76.8,30.12,SW,225,5.8,5.8,68,0.00,FEW,,0.00,WeatherDisplay:10.37,2013-05-30 17:23:00,
2013-05-30 13:28:00,88.2,76.3,30.12,SSW,202,10.7,10.7,68,0.00,FEW,,0.00,WeatherDisplay:10.37,2013-05-30 17:28:00,
2013-05-30 13:33:00,87.6,75.7,30.12,South,180,10.4,10.4,68,0.00,BKN,,0.00,WeatherDisplay:10.37,2013-05-30 17:33:00,
2013-05-30 13:38:00,88.3,76.4,30.12,SW,225,10.4,10.4,68,0.00,BKN,,0.00,WeatherDisplay:10.37,2013-05-30 17:38:00,
2013-05-30 13:43:00,86.5,74.7,30.12,SSW,202,8.1,8.1,68,0.00,BKN,,0.00,WeatherDisplay:10.37,2013-05-30 17:43:00,
2013-05-30 13:48:00,84.7,73.0,30.09,South,180,10.7,10.7,68,0.00,BKN,,0.00,WeatherDisplay:10.37,2013-05-30 17:48:00,
2013-05-30 13:53:00,86.0,74.2,30.09,South,180,7.8,7.8,68,0.00,BKN,,0.00,WeatherDisplay:10.37,2013-05-30 17:53:00,
2013-05-30 13:58:00,86.4,74.5,30.09,South,180,5.8,5.8,68,0.00,BKN,,0.00,WeatherDisplay:10.37,2013-05-30 17:58:00,
2013-05-30 14:03:00,85.3,73.5,30.09,South,180,6.9,6.9,68,0.00,BKN,,0.00,WeatherDisplay:10.37,2013-05-30 18:03:00,
2013-05-30 14:08:00,85.5,73.7,30.09,SW,225,8.1,8.1,68,0.00,BKN,,0.00,WeatherDisplay:10.37,2013-05-30 18:08:00,
2013-05-30 14:13:00,86.0,74.2,30.09,South,180,8.1,8.1,68,0.00,BKN,,0.00,WeatherDisplay:10.37,2013-05-30 18:13:00,
2013-05-30 14:18:00,86.9,75.1,30.12,SE,135,6.2,6.2,68,0.00,BKN,,0.00,WeatherDisplay:10.37,2013-05-30 18:18:00,
2013-05-30 14:23:00,85.8,74.0,30.12,SW,225,8.1,8.1,68,0.00,BKN,,0.00,WeatherDisplay:10.37,2013-05-30 18:23:00,
2013-05-30 14:28:00,86.4,74.5,30.12,South,180,9.2,9.2,68,0.00,BKN,,0.00,WeatherDisplay:10.37,2013-05-30 18:28:00,
2013-05-30 14:33:00,87.8,75.9,30.09,SW,225,5.8,5.8,68,0.00,BKN,,0.00,WeatherDisplay:10.37,2013-05-30 18:33:00,
2013-05-30 14:38:00,86.9,75.1,30.09,South,180,6.4,6.4,68,0.00,BKN,,0.00,WeatherDisplay:10.37,2013-05-30 18:38:00,
2013-05-30 14:43:00,87.1,75.2,30.09,SSW,202,8.1,8.1,68,0.00,BKN,,0.00,WeatherDisplay:10.37,2013-05-30 18:43:00,
2013-05-30 14:48:00,88.2,76.3,30.06,SW,225,5.8,5.8,68,0.00,BKN,,0.00,WeatherDisplay:10.37,2013-05-30 18:48:00,
2013-05-30 14:53:00,89.6,77.2,30.06,SW,225,7.4,7.4,67,0.00,BKN,,0.00,WeatherDisplay:10.37,2013-05-30 18:53:00,
2013-05-30 14:58:00,86.4,74.5,30.06,SSW,202,9.2,9.2,68,0.00,BKN,,0.00,WeatherDisplay:10.37,2013-05-30 18:58:00,
2013-05-30 15:03:00,85.6,73.9,30.06,West,270,8.1,8.1,68,0.00,OVC,,0.00,WeatherDisplay:10.37,2013-05-30 19:03:00,
2013-05-30 15:08:00,86.2,74.4,30.06,SW,225,7.4,7.4,68,0.00,OVC,,0.00,WeatherDisplay:10.37,2013-05-30 19:08:00,
2013-05-30 15:13:00,86.2,74.4,30.06,South,180,5.8,5.8,68,0.00,OVC,,0.00,WeatherDisplay:10.37,2013-05-30 19:13:00,
2013-05-30 15:18:00,87.3,75.4,30.06,SW,225,10.4,10.4,68,0.00,OVC,,0.00,WeatherDisplay:10.37,2013-05-30 19:18:00,
2013-05-30 15:23:00,88.0,76.1,30.06,SW,225,8.1,8.1,68,0.00,OVC,,0.00,WeatherDisplay:10.37,2013-05-30 19:23:00,
2013-05-30 15:28:00,87.1,75.2,30.06,South,180,5.8,5.8,68,0.00,OVC,,0.00,WeatherDisplay:10.37,2013-05-30 19:28:00,
2013-05-30 15:33:00,87.1,75.2,30.06,SW,225,9.2,9.2,68,0.00,OVC,,0.00,WeatherDisplay:10.37,2013-05-30 19:33:00,
2013-05-30 15:38:00,87.8,75.9,30.06,South,180,8.1,8.1,68,0.00,OVC,,0.00,WeatherDisplay:10.37,2013-05-30 19:38:00,
2013-05-30 15:43:00,88.9,76.9,30.06,South,180,4.6,4.6,68,0.00,OVC,,0.00,WeatherDisplay:10.37,2013-05-30 19:43:00,
2013-05-30 15:48:00,88.7,76.8,30.06,SSW,202,5.8,5.8,68,0.00,OVC,,0.00,WeatherDisplay:10.37,2013-05-30 19:48:00,
2013-05-30 15:53:00,88.7,76.8,30.06,South,180,5.8,5.8,68,0.00,OVC,,0.00,WeatherDisplay:10.37,2013-05-30 19:53:00,
2013-05-30 15:58:00,88.3,76.4,30.06,South,180,10.4,10.4,68,0.00,OVC,,0.00,WeatherDisplay:10.37,2013-05-30 19:58:00,
2013-05-30 16:03:00,86.5,74.7,30.03,SSW,202,10.4,10.4,68,0.00,OVC,,0.00,WeatherDisplay:10.37,2013-05-30 20:03:00,
2013-05-30 16:08:00,86.5,74.7,30.03,SW,225,7.4,7.4,68,0.00,OVC,,0.00,WeatherDisplay:10.37,2013-05-30 20:08:00,
2013-05-30 16:13:00,85.8,74.0,30.03,NE,45,5.8,5.8,68,0.00,OVC,,0.00,WeatherDisplay:10.37,2013-05-30 20:13:00,
2013-05-30 16:18:00,85.1,73.3,30.06,South,180,5.8,5.8,68,0.00,-RA,,0.00,WeatherDisplay:10.37,2013-05-30 20:18:00,
2013-05-30 16:23:00,84.2,72.5,30.06,SW,225,9.2,9.2,68,0.00,-RA,,0.00,WeatherDisplay:10.37,2013-05-30 20:23:00,
2013-05-30 16:28:00,84.0,72.8,30.06,SW,225,5.8,5.8,69,0.00,-RA,,0.00,WeatherDisplay:10.37,2013-05-30 20:28:00,
2013-05-30 16:33:00,84.0,72.8,30.06,SW,225,10.4,10.4,69,0.00,BKN,,0.00,WeatherDisplay:10.37,2013-05-30 20:33:00,
2013-05-30 16:38:00,84.0,72.8,30.06,South,180,5.8,5.8,69,0.00,BKN,,0.00,WeatherDisplay:10.37,2013-05-30 20:38:00,
2013-05-30 16:43:00,84.6,72.8,30.06,South,180,4.6,4.6,68,0.00,BKN,,0.00,WeatherDisplay:10.37,2013-05-30 20:43:00,
2013-05-30 16:48:00,84.6,72.8,30.06,SW,225,9.2,9.2,68,0.00,BKN,,0.00,WeatherDisplay:10.37,2013-05-30 20:48:00,
2013-05-30 16:53:00,84.2,72.5,30.06,SW,225,10.4,10.4,68,0.00,BKN,,0.00,WeatherDisplay:10.37,2013-05-30 20:53:00,
2013-05-30 16:58:00,84.4,72.7,30.06,SW,225,7.1,7.1,68,0.00,BKN,,0.00,WeatherDisplay:10.37,2013-05-30 20:58:00,
2013-05-30 17:03:00,84.0,72.8,30.03,SSW,202,12.7,12.7,69,0.00,BKN,,0.00,WeatherDisplay:10.37,2013-05-30 21:03:00,
2013-05-30 17:08:00,84.7,73.0,30.03,South,180,9.2,9.2,68,0.00,BKN,,0.00,WeatherDisplay:10.37,2013-05-30 21:08:00,
2013-05-30 17:13:00,85.6,73.9,30.03,South,180,7.6,7.6,68,0.00,BKN,,0.00,WeatherDisplay:10.37,2013-05-30 21:13:00,
2013-05-30 17:18:00,85.6,73.9,30.03,South,180,9.2,9.2,68,0.00,FEW,,0.00,WeatherDisplay:10.37,2013-05-30 21:18:00,
2013-05-30 17:23:00,85.3,73.5,30.03,South,180,5.8,5.8,68,0.00,FEW,,0.00,WeatherDisplay:10.37,2013-05-30 21:23:00,
2013-05-30 17:28:00,85.1,73.3,30.03,SE,135,4.9,4.9,68,0.00,FEW,,0.00,WeatherDisplay:10.37,2013-05-30 21:28:00,
2013-05-30 17:33:00,85.1,73.3,30.03,South,180,6.9,6.9,68,0.00,BKN,,0.00,WeatherDisplay:10.37,2013-05-30 21:33:00,
2013-05-30 17:38:00,85.3,73.5,30.03,South,180,8.1,8.1,68,0.00,BKN,,0.00,WeatherDisplay:10.37,2013-05-30 21:38:00,
2013-05-30 17:43:00,86.5,74.7,30.03,West,270,5.4,5.4,68,0.00,BKN,,0.00,WeatherDisplay:10.37,2013-05-30 21:43:00,
2013-05-30 17:48:00,85.6,73.9,30.03,South,180,8.1,8.1,68,0.00,BKN,,0.00,WeatherDisplay:10.37,2013-05-30 21:48:00,
2013-05-30 17:53:00,85.5,73.7,30.03,NW,315,4.6,4.6,68,0.00,BKN,,0.00,WeatherDisplay:10.37,2013-05-30 21:53:00,
2013-05-30 17:58:00,84.7,73.0,30.03,SE,135,3.8,3.8,68,0.00,BKN,,0.00,WeatherDisplay:10.37,2013-05-30 21:58:00,
2013-05-30 18:03:00,84.7,73.0,30.03,South,180,3.5,3.5,68,0.00,BKN,,0.00,WeatherDisplay:10.37,2013-05-30 22:03:00,
2013-05-30 18:08:00,85.1,73.3,30.03,South,180,4.6,4.6,68,0.00,BKN,,0.00,WeatherDisplay:10.37,2013-05-30 22:08:00,
2013-05-30 18:13:00,84.9,73.2,30.03,South,180,2.4,2.4,68,0.00,BKN,,0.00,WeatherDisplay:10.37,2013-05-30 22:13:00,
2013-05-30 18:18:00,84.7,73.0,30.03,South,180,2.3,2.3,68,0.00,BKN,,0.00,WeatherDisplay:10.37,2013-05-30 22:18:00,
2013-05-30 18:23:00,84.9,73.2,30.03,South,180,1.2,0.0,68,0.00,BKN,,0.00,WeatherDisplay:10.37,2013-05-30 22:23:00,
2013-05-30 18:28:00,85.1,73.3,30.03,East,90,2.3,2.3,68,0.00,BKN,,0.00,WeatherDisplay:10.37,2013-05-30 22:28:00,
2013-05-30 18:33:00,85.1,73.3,30.03,South,180,3.5,3.5,68,0.00,BKN,,0.00,WeatherDisplay:10.37,2013-05-30 22:33:00,
2013-05-30 18:38:00,84.7,73.0,30.03,South,180,9.2,9.2,68,0.00,BKN,,0.00,WeatherDisplay:10.37,2013-05-30 22:38:00,
2013-05-30 18:43:00,84.4,72.7,30.03,SSW,202,9.2,9.2,68,0.00,BKN,,0.00,WeatherDisplay:10.37,2013-05-30 22:43:00,
2013-05-30 18:48:00,84.4,72.7,30.03,SW,225,5.8,5.8,68,0.00,BKN,,0.00,WeatherDisplay:10.37,2013-05-30 22:48:00,
2013-05-30 18:53:00,83.8,72.6,30.03,SSW,202,6.9,6.9,69,0.00,BKN,,0.00,WeatherDisplay:10.37,2013-05-30 22:53:00,
2013-05-30 18:58:00,83.3,72.1,30.03,South,180,9.2,9.2,69,0.00,BKN,,0.00,WeatherDisplay:10.37,2013-05-30 22:58:00,
2013-05-30 19:03:00,82.9,71.7,30.03,SW,225,5.8,5.8,69,0.00,BKN,,0.00,WeatherDisplay:10.37,2013-05-30 23:03:00,
2013-05-30 19:08:00,83.1,71.9,30.03,South,180,5.8,6.0,69,0.00,BKN,,0.00,WeatherDisplay:10.37,2013-05-30 23:08:00,
2013-05-30 19:13:00,82.9,71.7,30.03,South,180,6.9,6.9,69,0.00,BKN,,0.00,WeatherDisplay:10.37,2013-05-30 23:13:00,
2013-05-30 19:18:00,82.6,71.4,30.00,SSW,202,5.8,5.8,69,0.00,BKN,,0.00,WeatherDisplay:10.37,2013-05-30 23:18:00,
2013-05-30 19:23:00,82.2,71.0,30.00,South,180,3.5,3.5,69,0.00,BKN,,0.00,WeatherDisplay:10.37,2013-05-30 23:23:00,
2013-05-30 19:28:00,82.0,70.9,30.00,South,180,6.9,6.9,69,0.00,BKN,,0.00,WeatherDisplay:10.37,2013-05-30 23:28:00,
2013-05-30 19:33:00,81.9,70.7,30.00,SW,225,5.8,5.8,69,0.00,BKN,,0.00,WeatherDisplay:10.37,2013-05-30 23:33:00,
2013-05-30 19:38:00,81.7,70.5,30.00,South,180,3.5,3.5,69,0.00,BKN,,0.00,WeatherDisplay:10.37,2013-05-30 23:38:00,
2013-05-30 19:43:00,81.5,70.3,30.00,South,180,3.6,3.6,69,0.00,BKN,,0.00,WeatherDisplay:10.37,2013-05-30 23:43:00,
2013-05-30 19:48:00,81.1,70.0,30.00,South,180,3.5,3.5,69,0.00,BKN,,0.00,WeatherDisplay:10.37,2013-05-30 23:48:00,
2013-05-30 19:53:00,81.1,70.0,30.00,South,180,3.5,3.5,69,0.00,BKN,,0.00,WeatherDisplay:10.37,2013-05-30 23:53:00,
2013-05-30 19:58:00,81.0,69.8,30.00,West,270,4.6,4.6,69,0.00,BKN,,0.00,WeatherDisplay:10.37,2013-05-30 23:58:00,
2013-05-30 20:03:00,80.6,69.5,30.00,South,180,5.8,5.8,69,0.00,BKN,,0.00,WeatherDisplay:10.37,2013-05-31 00:03:00,
2013-05-30 20:08:00,80.6,69.5,30.00,South,180,4.6,4.6,69,0.00,BKN,,0.00,WeatherDisplay:10.37,2013-05-31 00:08:00,
2013-05-30 20:13:00,80.4,69.7,30.00,SSW,202,3.1,3.1,70,0.00,BKN,,0.00,WeatherDisplay:10.37,2013-05-31 00:13:00,
2013-05-30 20:18:00,80.2,69.6,30.00,South,180,3.5,3.5,70,0.00,BKN,,0.00,WeatherDisplay:10.37,2013-05-31 00:18:00,
2013-05-30 20:23:00,79.9,69.2,30.00,SE,135,3.8,3.8,70,0.00,BKN,,0.00,WeatherDisplay:10.37,2013-05-31 00:23:00,
2013-05-30 20:28:00,79.7,69.0,30.00,South,180,3.8,3.8,70,0.00,BKN,,0.00,WeatherDisplay:10.37,2013-05-31 00:28:00,
2013-05-30 20:33:00,79.3,68.7,30.00,SE,135,3.3,3.3,70,0.00,BKN,,0.00,WeatherDisplay:10.37,2013-05-31 00:33:00,
2013-05-30 20:38:00,79.0,68.4,30.00,South,180,4.6,4.6,70,0.00,BKN,,0.00,WeatherDisplay:10.37,2013-05-31 00:38:00,
2013-05-30 20:43:00,78.8,68.2,30.00,SW,225,4.6,4.6,70,0.00,BKN,,0.00,WeatherDisplay:10.37,2013-05-31 00:43:00,
2013-05-30 20:48:00,78.6,68.0,30.00,SW,225,4.0,4.0,70,0.00,BKN,,0.00,WeatherDisplay:10.37,2013-05-31 00:48:00,
2013-05-30 20:53:00,78.3,67.7,30.00,South,180,2.9,2.9,70,0.00,BKN,,0.00,WeatherDisplay:10.37,2013-05-31 00:53:00,
2013-05-30 20:58:00,77.7,67.2,30.00,South,180,3.5,3.5,70,0.00,BKN,,0.00,WeatherDisplay:10.37,2013-05-31 00:58:00,
2013-05-30 21:03:00,77.5,67.0,30.00,SW,225,4.0,4.0,70,0.00,BKN,,0.00,WeatherDisplay:10.37,2013-05-31 01:03:00,
2013-05-30 21:08:00,77.4,66.8,30.00,South,180,2.9,2.9,70,0.00,BKN,,0.00,WeatherDisplay:10.37,2013-05-31 01:08:00,
2013-05-30 21:13:00,77.2,66.6,30.00,SW,225,4.6,4.6,70,0.00,BKN,,0.00,WeatherDisplay:10.37,2013-05-31 01:13:00,
2013-05-30 21:18:00,76.6,66.1,30.00,South,180,3.5,3.5,70,0.00,SCT,,0.00,WeatherDisplay:10.37,2013-05-31 01:18:00,
2013-05-30 21:23:00,76.5,65.9,30.00,South,180,2.3,2.3,70,0.00,SCT,,0.00,WeatherDisplay:10.37,2013-05-31 01:23:00,
2013-05-30 21:28:00,76.3,65.8,30.00,South,180,3.5,3.5,70,0.00,SCT,,0.00,WeatherDisplay:10.37,2013-05-31 01:28:00,
2013-05-30 21:33:00,76.1,65.6,30.00,South,180,3.5,3.5,70,0.00,SCT,,0.00,WeatherDisplay:10.37,2013-05-31 01:33:00,
2013-05-30 21:38:00,76.1,65.6,30.00,South,180,5.8,5.8,70,0.00,SCT,,0.00,WeatherDisplay:10.37,2013-05-31 01:38:00,
2013-05-30 21:43:00,75.7,65.3,30.00,SE,135,2.6,2.6,70,0.00,SCT,,0.00,WeatherDisplay:10.37,2013-05-31 01:43:00,
2013-05-30 21:48:00,75.6,65.1,30.00,South,180,3.5,3.5,70,0.00,SCT,,0.00,WeatherDisplay:10.37,2013-05-31 01:48:00,
2013-05-30 21:53:00,75.4,64.9,30.00,South,180,3.5,3.5,70,0.00,SCT,,0.00,WeatherDisplay:10.37,2013-05-31 01:53:00,
2013-05-30 21:58:00,75.4,64.9,30.00,SW,225,3.5,3.5,70,0.00,SCT,,0.00,WeatherDisplay:10.37,2013-05-31 01:58:00,
2013-05-30 22:03:00,75.0,65.0,30.03,South,180,2.3,2.3,71,0.00,SCT,,0.00,WeatherDisplay:10.37,2013-05-31 02:03:00,
2013-05-30 22:08:00,74.8,64.8,30.03,SW,225,4.6,4.6,71,0.00,SCT,,0.00,WeatherDisplay:10.37,2013-05-31 02:08:00,
2013-05-30 22:13:00,74.8,64.8,30.03,South,180,3.5,3.5,71,0.00,SCT,,0.00,WeatherDisplay:10.37,2013-05-31 02:13:00,
2013-05-30 22:18:00,74.8,64.8,30.06,SW,225,4.9,4.9,71,0.00,CLR,,0.00,WeatherDisplay:10.37,2013-05-31 02:18:00,
2013-05-30 22:23:00,74.8,64.8,30.06,South,180,3.8,3.8,71,0.00,CLR,,0.00,WeatherDisplay:10.37,2013-05-31 02:23:00,
2013-05-30 22:28:00,74.8,64.8,30.06,SSW,202,5.8,5.8,71,0.00,CLR,,0.00,WeatherDisplay:10.37,2013-05-31 02:28:00,
2013-05-30 22:33:00,70.3,30.8,30.00,South,186,3.0,5.0,23,0.00,CLR,CLR,0.00,WeatherDisplay:10.37,2013-05-31 02:33:00,
2013-05-30 22:34:00,74.8,64.8,30.06,South,180,4.6,4.6,71,0.00,CLR,,0.00,WeatherDisplay:10.37,2013-05-31 02:34:00,
2013-05-30 22:39:00,74.7,64.6,30.06,South,180,3.5,3.5,71,0.00,CLR,,0.00,WeatherDisplay:10.37,2013-05-31 02:39:00,
2013-05-30 22:44:00,74.5,64.5,30.06,South,180,3.6,3.6,71,0.00,CLR,,0.00,WeatherDisplay:10.37,2013-05-31 02:44:00,
2013-05-30 22:48:00,70.3,29.7,30.00,South,186,2.0,5.0,22,0.00,CLR,CLR,0.00,WeatherDisplay:10.37,2013-05-31 02:48:00,
2013-05-30 22:49:00,74.3,64.3,30.06,South,180,3.5,3.5,71,0.00,CLR,,0.00,WeatherDisplay:10.37,2013-05-31 02:49:00,
2013-05-30 22:54:00,74.1,64.1,30.06,SSW,202,4.6,4.6,71,0.00,CLR,,0.00,WeatherDisplay:10.37,2013-05-31 02:54:00,
2013-05-30 22:59:00,73.9,63.9,30.06,SW,225,3.5,3.5,71,0.00,CLR,,0.00,WeatherDisplay:10.37,2013-05-31 02:59:00,
2013-05-30 23:03:00,70.0,29.4,30.00,South,175,1.0,5.0,22,0.00,CLR,CLR,0.00,WeatherDisplay:10.37,2013-05-31 03:03:00,
2013-05-30 23:04:00,73.6,63.6,30.06,South,180,3.5,3.5,71,0.00,CLR,,0.00,WeatherDisplay:10.37,2013-05-31 03:04:00,
2013-05-30 23:09:00,73.4,63.4,30.06,South,180,3.5,3.5,71,0.00,CLR,,0.00,WeatherDisplay:10.37,2013-05-31 03:09:00,
2013-05-30 23:14:00,73.2,63.2,30.06,South,180,2.6,2.6,71,0.00,CLR,,0.00,WeatherDisplay:10.37,2013-05-31 03:14:00,
2013-05-30 23:18:00,70.0,30.5,30.00,SSW,194,1.0,4.0,23,0.00,CLR,CLR,0.00,WeatherDisplay:10.37,2013-05-31 03:18:00,
2013-05-30 23:19:00,72.9,62.9,30.06,SE,135,2.3,2.3,71,0.00,CLR,,0.00,WeatherDisplay:10.37,2013-05-31 03:19:00,
2013-05-30 23:24:00,72.7,62.7,30.06,SE,135,1.2,0.0,71,0.00,CLR,,0.00,WeatherDisplay:10.37,2013-05-31 03:24:00,
2013-05-30 23:29:00,72.5,62.6,30.06,South,180,3.5,3.5,71,0.00,CLR,,0.00,WeatherDisplay:10.37,2013-05-31 03:29:00,
2013-05-30 23:33:00,69.6,30.1,30.00,South,175,2.0,6.0,23,0.00,CLR,CLR,0.00,WeatherDisplay:10.37,2013-05-31 03:33:00,
2013-05-30 23:34:00,72.5,62.6,30.06,South,180,3.5,3.5,71,0.00,CLR,,0.00,WeatherDisplay:10.37,2013-05-31 03:34:00,
2013-05-30 23:48:00,69.1,29.7,30.00,South,180,1.0,2.0,23,0.00,CLR,CLR,0.00,WeatherDisplay:10.37,2013-05-31 03:48:00,